sensor_id;sensor_type;location;lat;lon;timestamp;P1;durP1;ratioP1;P2;durP2;ratioP2
28176;SDS011;15461;41.652;9.378;2023-12-20T00:02:14;3.15;;;1.73;;
28176;SDS011;15461;41.652;9.378;2023-12-20T00:04:40;2.78;;;1.60;;
28176;SDS011;15461;41.652;9.378;2023-12-20T00:07:05;2.47;;;1.73;;
28176;SDS011;15461;41.652;9.378;2023-12-20T00:09:31;2.67;;;1.55;;
28176;SDS011;15461;41.652;9.378;2023-12-20T00:11:57;2.03;;;1.25;;
28176;SDS011;15461;41.652;9.378;2023-12-20T00:14:23;2.90;;;1.80;;
28176;SDS011;15461;41.652;9.378;2023-12-20T00:16:48;2.70;;;1.55;;
28176;SDS011;15461;41.652;9.378;2023-12-20T00:19:14;5.53;;;2.30;;
28176;SDS011;15461;41.652;9.378;2023-12-20T00:21:40;3.72;;;1.88;;
28176;SDS011;15461;41.652;9.378;2023-12-20T00:24:05;2.80;;;1.60;;
28176;SDS011;15461;41.652;9.378;2023-12-20T00:26:31;2.42;;;1.50;;
28176;SDS011;15461;41.652;9.378;2023-12-20T00:28:57;2.67;;;1.30;;
28176;SDS011;15461;41.652;9.378;2023-12-20T00:31:23;2.83;;;1.52;;
28176;SDS011;15461;41.652;9.378;2023-12-20T00:33:49;4.25;;;1.73;;
28176;SDS011;15461;41.652;9.378;2023-12-20T00:36:14;2.60;;;1.75;;
28176;SDS011;15461;41.652;9.378;2023-12-20T00:38:40;1.77;;;1.38;;
28176;SDS011;15461;41.652;9.378;2023-12-20T00:41:06;3.53;;;1.70;;
28176;SDS011;15461;41.652;9.378;2023-12-20T00:43:31;4.70;;;1.85;;
28176;SDS011;15461;41.652;9.378;2023-12-20T00:45:57;2.03;;;1.33;;
28176;SDS011;15461;41.652;9.378;2023-12-20T00:48:25;3.42;;;1.23;;
28176;SDS011;15461;41.652;9.378;2023-12-20T00:50:52;3.65;;;1.35;;
28176;SDS011;15461;41.652;9.378;2023-12-20T00:53:18;2.75;;;1.55;;
28176;SDS011;15461;41.652;9.378;2023-12-20T00:55:44;3.35;;;1.92;;
28176;SDS011;15461;41.652;9.378;2023-12-20T00:58:11;4.30;;;2.00;;
28176;SDS011;15461;41.652;9.378;2023-12-20T01:00:37;4.55;;;1.67;;
28176;SDS011;15461;41.652;9.378;2023-12-20T01:03:03;4.38;;;1.52;;
28176;SDS011;15461;41.652;9.378;2023-12-20T01:05:29;1.90;;;1.10;;
28176;SDS011;15461;41.652;9.378;2023-12-20T01:07:54;0.93;;;0.88;;
28176;SDS011;15461;41.652;9.378;2023-12-20T01:10:20;1.38;;;1.00;;
28176;SDS011;15461;41.652;9.378;2023-12-20T01:12:47;2.00;;;1.05;;
28176;SDS011;15461;41.652;9.378;2023-12-20T01:15:12;2.08;;;0.90;;
28176;SDS011;15461;41.652;9.378;2023-12-20T01:17:38;1.15;;;0.88;;
28176;SDS011;15461;41.652;9.378;2023-12-20T01:20:04;1.25;;;0.90;;
28176;SDS011;15461;41.652;9.378;2023-12-20T01:22:31;2.08;;;1.20;;
28176;SDS011;15461;41.652;9.378;2023-12-20T01:24:56;1.40;;;0.90;;
28176;SDS011;15461;41.652;9.378;2023-12-20T01:27:22;1.40;;;1.00;;
28176;SDS011;15461;41.652;9.378;2023-12-20T01:29:48;2.55;;;1.23;;
28176;SDS011;15461;41.652;9.378;2023-12-20T01:32:14;0.75;;;0.75;;
28176;SDS011;15461;41.652;9.378;2023-12-20T01:34:39;0.95;;;0.85;;
28176;SDS011;15461;41.652;9.378;2023-12-20T01:37:06;1.58;;;1.10;;
28176;SDS011;15461;41.652;9.378;2023-12-20T01:39:31;1.00;;;0.90;;
28176;SDS011;15461;41.652;9.378;2023-12-20T01:41:57;1.48;;;1.00;;
28176;SDS011;15461;41.652;9.378;2023-12-20T01:44:23;2.15;;;0.90;;
28176;SDS011;15461;41.652;9.378;2023-12-20T01:46:49;1.63;;;1.05;;
28176;SDS011;15461;41.652;9.378;2023-12-20T01:49:14;0.98;;;0.82;;
28176;SDS011;15461;41.652;9.378;2023-12-20T01:51:41;1.10;;;0.80;;
28176;SDS011;15461;41.652;9.378;2023-12-20T01:54:07;1.25;;;1.00;;
28176;SDS011;15461;41.652;9.378;2023-12-20T01:56:33;1.00;;;0.85;;
28176;SDS011;15461;41.652;9.378;2023-12-20T01:58:59;1.52;;;0.82;;
28176;SDS011;15461;41.652;9.378;2023-12-20T02:01:26;1.40;;;1.13;;
28176;SDS011;15461;41.652;9.378;2023-12-20T02:03:53;0.70;;;0.70;;
28176;SDS011;15461;41.652;9.378;2023-12-20T02:06:20;2.67;;;1.00;;
28176;SDS011;15461;41.652;9.378;2023-12-20T02:08:48;1.40;;;0.88;;
28176;SDS011;15461;41.652;9.378;2023-12-20T02:11:15;0.88;;;0.60;;
28176;SDS011;15461;41.652;9.378;2023-12-20T02:13:41;2.50;;;1.17;;
28176;SDS011;15461;41.652;9.378;2023-12-20T02:16:07;0.93;;;0.80;;
28176;SDS011;15461;41.652;9.378;2023-12-20T02:18:33;0.85;;;0.85;;
28176;SDS011;15461;41.652;9.378;2023-12-20T02:20:59;1.67;;;0.90;;
28176;SDS011;15461;41.652;9.378;2023-12-20T02:23:24;1.13;;;0.90;;
28176;SDS011;15461;41.652;9.378;2023-12-20T02:25:50;0.80;;;0.68;;
28176;SDS011;15461;41.652;9.378;2023-12-20T02:28:16;2.47;;;1.02;;
28176;SDS011;15461;41.652;9.378;2023-12-20T02:30:42;2.70;;;1.08;;
28176;SDS011;15461;41.652;9.378;2023-12-20T02:33:08;3.22;;;1.30;;
28176;SDS011;15461;41.652;9.378;2023-12-20T02:35:37;1.05;;;0.70;;
28176;SDS011;15461;41.652;9.378;2023-12-20T02:38:02;1.27;;;1.00;;
28176;SDS011;15461;41.652;9.378;2023-12-20T02:40:28;1.13;;;0.80;;
28176;SDS011;15461;41.652;9.378;2023-12-20T02:42:54;0.80;;;0.80;;
28176;SDS011;15461;41.652;9.378;2023-12-20T02:45:20;1.77;;;0.80;;
28176;SDS011;15461;41.652;9.378;2023-12-20T02:47:46;1.25;;;1.10;;
28176;SDS011;15461;41.652;9.378;2023-12-20T02:50:11;1.65;;;1.00;;
28176;SDS011;15461;41.652;9.378;2023-12-20T02:52:37;1.25;;;0.88;;
28176;SDS011;15461;41.652;9.378;2023-12-20T02:55:03;1.13;;;0.95;;
28176;SDS011;15461;41.652;9.378;2023-12-20T02:57:29;1.52;;;1.02;;
28176;SDS011;15461;41.652;9.378;2023-12-20T02:59:55;2.00;;;1.25;;
28176;SDS011;15461;41.652;9.378;2023-12-20T03:02:20;1.10;;;0.80;;
28176;SDS011;15461;41.652;9.378;2023-12-20T03:04:46;1.33;;;1.00;;
28176;SDS011;15461;41.652;9.378;2023-12-20T03:07:12;1.05;;;0.93;;
28176;SDS011;15461;41.652;9.378;2023-12-20T03:09:37;0.88;;;0.70;;
28176;SDS011;15461;41.652;9.378;2023-12-20T03:12:03;1.30;;;0.93;;
28176;SDS011;15461;41.652;9.378;2023-12-20T03:14:29;4.97;;;0.90;;
28176;SDS011;15461;41.652;9.378;2023-12-20T03:16:55;0.88;;;0.80;;
28176;SDS011;15461;41.652;9.378;2023-12-20T03:19:21;1.13;;;0.95;;
28176;SDS011;15461;41.652;9.378;2023-12-20T03:21:46;0.88;;;0.60;;
28176;SDS011;15461;41.652;9.378;2023-12-20T03:24:12;1.48;;;0.90;;
28176;SDS011;15461;41.652;9.378;2023-12-20T03:26:38;1.30;;;0.80;;
28176;SDS011;15461;41.652;9.378;2023-12-20T03:29:04;0.98;;;0.85;;
28176;SDS011;15461;41.652;9.378;2023-12-20T03:31:29;1.55;;;1.25;;
28176;SDS011;15461;41.652;9.378;2023-12-20T03:33:55;1.42;;;0.88;;
28176;SDS011;15461;41.652;9.378;2023-12-20T03:36:21;0.88;;;0.77;;
28176;SDS011;15461;41.652;9.378;2023-12-20T03:38:46;1.25;;;0.80;;
28176;SDS011;15461;41.652;9.378;2023-12-20T03:41:13;3.30;;;0.90;;
28176;SDS011;15461;41.652;9.378;2023-12-20T03:43:38;1.10;;;0.90;;
28176;SDS011;15461;41.652;9.378;2023-12-20T03:46:04;1.02;;;0.90;;
28176;SDS011;15461;41.652;9.378;2023-12-20T03:48:30;2.45;;;0.93;;
28176;SDS011;15461;41.652;9.378;2023-12-20T03:50:56;1.85;;;1.08;;
28176;SDS011;15461;41.652;9.378;2023-12-20T03:53:22;1.65;;;1.00;;
28176;SDS011;15461;41.652;9.378;2023-12-20T03:55:48;2.40;;;1.38;;
28176;SDS011;15461;41.652;9.378;2023-12-20T03:58:14;1.20;;;0.80;;
28176;SDS011;15461;41.652;9.378;2023-12-20T04:00:39;1.33;;;0.95;;
28176;SDS011;15461;41.652;9.378;2023-12-20T04:03:05;4.75;;;1.00;;
28176;SDS011;15461;41.652;9.378;2023-12-20T04:05:32;1.77;;;1.08;;
28176;SDS011;15461;41.652;9.378;2023-12-20T04:07:57;1.50;;;1.05;;
28176;SDS011;15461;41.652;9.378;2023-12-20T04:10:24;2.08;;;1.08;;
28176;SDS011;15461;41.652;9.378;2023-12-20T04:12:50;2.45;;;1.05;;
28176;SDS011;15461;41.652;9.378;2023-12-20T04:15:16;1.63;;;1.23;;
28176;SDS011;15461;41.652;9.378;2023-12-20T04:17:41;2.28;;;0.95;;
28176;SDS011;15461;41.652;9.378;2023-12-20T04:20:07;1.45;;;1.08;;
28176;SDS011;15461;41.652;9.378;2023-12-20T04:22:33;2.42;;;1.05;;
28176;SDS011;15461;41.652;9.378;2023-12-20T04:24:59;1.45;;;1.05;;
28176;SDS011;15461;41.652;9.378;2023-12-20T04:27:25;1.02;;;0.75;;
28176;SDS011;15461;41.652;9.378;2023-12-20T04:29:50;1.55;;;0.88;;
28176;SDS011;15461;41.652;9.378;2023-12-20T04:32:16;1.67;;;1.13;;
28176;SDS011;15461;41.652;9.378;2023-12-20T04:34:42;2.55;;;1.10;;
28176;SDS011;15461;41.652;9.378;2023-12-20T04:37:08;2.75;;;1.00;;
28176;SDS011;15461;41.652;9.378;2023-12-20T04:39:33;1.08;;;0.88;;
28176;SDS011;15461;41.652;9.378;2023-12-20T04:41:59;2.83;;;1.00;;
28176;SDS011;15461;41.652;9.378;2023-12-20T04:44:25;0.93;;;0.82;;
28176;SDS011;15461;41.652;9.378;2023-12-20T04:46:51;2.28;;;0.90;;
28176;SDS011;15461;41.652;9.378;2023-12-20T04:49:17;2.60;;;1.10;;
28176;SDS011;15461;41.652;9.378;2023-12-20T04:51:43;1.25;;;0.90;;
28176;SDS011;15461;41.652;9.378;2023-12-20T04:54:09;1.23;;;0.73;;
28176;SDS011;15461;41.652;9.378;2023-12-20T04:56:35;1.45;;;1.13;;
28176;SDS011;15461;41.652;9.378;2023-12-20T04:59:01;1.67;;;0.98;;
28176;SDS011;15461;41.652;9.378;2023-12-20T05:01:27;3.90;;;1.08;;
28176;SDS011;15461;41.652;9.378;2023-12-20T05:03:53;2.45;;;0.90;;
28176;SDS011;15461;41.652;9.378;2023-12-20T05:06:18;0.77;;;0.70;;
28176;SDS011;15461;41.652;9.378;2023-12-20T05:08:44;1.52;;;0.90;;
28176;SDS011;15461;41.652;9.378;2023-12-20T05:11:10;0.77;;;0.68;;
28176;SDS011;15461;41.652;9.378;2023-12-20T05:13:38;1.50;;;0.70;;
28176;SDS011;15461;41.652;9.378;2023-12-20T05:16:04;2.25;;;0.63;;
28176;SDS011;15461;41.652;9.378;2023-12-20T05:18:30;1.05;;;0.77;;
28176;SDS011;15461;41.652;9.378;2023-12-20T05:20:56;1.30;;;0.90;;
28176;SDS011;15461;41.652;9.378;2023-12-20T05:23:22;1.25;;;0.93;;
28176;SDS011;15461;41.652;9.378;2023-12-20T05:25:47;1.08;;;0.95;;
28176;SDS011;15461;41.652;9.378;2023-12-20T05:28:14;3.42;;;1.00;;
28176;SDS011;15461;41.652;9.378;2023-12-20T05:30:40;1.85;;;1.00;;
28176;SDS011;15461;41.652;9.378;2023-12-20T05:33:06;1.98;;;1.10;;
28176;SDS011;15461;41.652;9.378;2023-12-20T05:35:32;1.70;;;0.80;;
28176;SDS011;15461;41.652;9.378;2023-12-20T05:37:57;1.17;;;1.08;;
28176;SDS011;15461;41.652;9.378;2023-12-20T05:40:23;1.30;;;1.10;;
28176;SDS011;15461;41.652;9.378;2023-12-20T05:42:49;0.88;;;0.80;;
28176;SDS011;15461;41.652;9.378;2023-12-20T05:45:15;0.95;;;0.95;;
28176;SDS011;15461;41.652;9.378;2023-12-20T05:47:41;1.52;;;0.93;;
28176;SDS011;15461;41.652;9.378;2023-12-20T05:50:06;1.48;;;0.90;;
28176;SDS011;15461;41.652;9.378;2023-12-20T05:52:32;1.20;;;0.95;;
28176;SDS011;15461;41.652;9.378;2023-12-20T05:54:58;0.70;;;0.70;;
28176;SDS011;15461;41.652;9.378;2023-12-20T05:57:26;0.88;;;0.88;;
28176;SDS011;15461;41.652;9.378;2023-12-20T05:59:52;0.82;;;0.80;;
28176;SDS011;15461;41.652;9.378;2023-12-20T06:02:18;1.17;;;0.80;;
28176;SDS011;15461;41.652;9.378;2023-12-20T06:04:44;1.80;;;1.00;;
28176;SDS011;15461;41.652;9.378;2023-12-20T06:07:13;2.17;;;1.02;;
28176;SDS011;15461;41.652;9.378;2023-12-20T06:09:39;0.70;;;0.70;;
28176;SDS011;15461;41.652;9.378;2023-12-20T06:12:07;1.00;;;0.80;;
28176;SDS011;15461;41.652;9.378;2023-12-20T06:14:33;1.50;;;0.95;;
28176;SDS011;15461;41.652;9.378;2023-12-20T06:17:00;1.70;;;1.20;;
28176;SDS011;15461;41.652;9.378;2023-12-20T06:19:26;1.73;;;1.25;;
28176;SDS011;15461;41.652;9.378;2023-12-20T06:21:53;2.00;;;1.15;;
28176;SDS011;15461;41.652;9.378;2023-12-20T06:24:19;1.38;;;1.00;;
28176;SDS011;15461;41.652;9.378;2023-12-20T06:26:44;2.22;;;1.30;;
28176;SDS011;15461;41.652;9.378;2023-12-20T06:29:10;2.90;;;1.15;;
28176;SDS011;15461;41.652;9.378;2023-12-20T06:31:36;1.88;;;0.88;;
28176;SDS011;15461;41.652;9.378;2023-12-20T06:34:01;1.45;;;0.90;;
28176;SDS011;15461;41.652;9.378;2023-12-20T06:36:28;1.55;;;0.98;;
28176;SDS011;15461;41.652;9.378;2023-12-20T06:38:54;0.70;;;0.70;;
28176;SDS011;15461;41.652;9.378;2023-12-20T06:41:19;1.48;;;1.10;;
28176;SDS011;15461;41.652;9.378;2023-12-20T06:43:45;1.48;;;1.20;;
28176;SDS011;15461;41.652;9.378;2023-12-20T06:46:12;1.27;;;1.05;;
28176;SDS011;15461;41.652;9.378;2023-12-20T06:48:38;5.65;;;1.15;;
28176;SDS011;15461;41.652;9.378;2023-12-20T06:51:05;1.08;;;0.90;;
28176;SDS011;15461;41.652;9.378;2023-12-20T06:53:31;1.33;;;1.00;;
28176;SDS011;15461;41.652;9.378;2023-12-20T06:55:57;1.77;;;1.10;;
28176;SDS011;15461;41.652;9.378;2023-12-20T06:58:23;3.33;;;0.90;;
28176;SDS011;15461;41.652;9.378;2023-12-20T07:00:48;3.35;;;1.10;;
28176;SDS011;15461;41.652;9.378;2023-12-20T07:03:15;1.70;;;1.08;;
28176;SDS011;15461;41.652;9.378;2023-12-20T07:05:41;1.27;;;1.00;;
28176;SDS011;15461;41.652;9.378;2023-12-20T07:08:07;1.88;;;1.00;;
28176;SDS011;15461;41.652;9.378;2023-12-20T07:10:33;2.20;;;0.95;;
28176;SDS011;15461;41.652;9.378;2023-12-20T07:12:58;1.52;;;0.90;;
28176;SDS011;15461;41.652;9.378;2023-12-20T07:15:24;0.88;;;0.80;;
28176;SDS011;15461;41.652;9.378;2023-12-20T07:17:52;0.98;;;0.88;;
28176;SDS011;15461;41.652;9.378;2023-12-20T07:20:18;1.45;;;0.93;;
28176;SDS011;15461;41.652;9.378;2023-12-20T07:22:43;1.75;;;0.85;;
28176;SDS011;15461;41.652;9.378;2023-12-20T07:25:09;1.40;;;1.00;;
28176;SDS011;15461;41.652;9.378;2023-12-20T07:27:35;0.90;;;0.75;;
28176;SDS011;15461;41.652;9.378;2023-12-20T07:30:01;2.30;;;1.10;;
28176;SDS011;15461;41.652;9.378;2023-12-20T07:32:27;1.02;;;0.70;;
28176;SDS011;15461;41.652;9.378;2023-12-20T07:34:53;1.13;;;1.02;;
28176;SDS011;15461;41.652;9.378;2023-12-20T07:37:19;3.03;;;1.05;;
28176;SDS011;15461;41.652;9.378;2023-12-20T07:39:46;1.63;;;0.90;;
28176;SDS011;15461;41.652;9.378;2023-12-20T07:42:12;7.10;;;1.10;;
28176;SDS011;15461;41.652;9.378;2023-12-20T07:44:37;2.17;;;0.77;;
28176;SDS011;15461;41.652;9.378;2023-12-20T07:47:03;1.75;;;0.88;;
28176;SDS011;15461;41.652;9.378;2023-12-20T07:49:30;2.53;;;1.10;;
28176;SDS011;15461;41.652;9.378;2023-12-20T07:51:56;5.75;;;0.90;;
28176;SDS011;15461;41.652;9.378;2023-12-20T07:54:23;1.15;;;1.00;;
28176;SDS011;15461;41.652;9.378;2023-12-20T07:56:48;0.98;;;0.90;;
28176;SDS011;15461;41.652;9.378;2023-12-20T07:59:14;2.45;;;1.17;;
28176;SDS011;15461;41.652;9.378;2023-12-20T08:01:40;2.00;;;1.15;;
28176;SDS011;15461;41.652;9.378;2023-12-20T08:04:06;2.42;;;1.05;;
28176;SDS011;15461;41.652;9.378;2023-12-20T08:06:31;3.10;;;1.35;;
28176;SDS011;15461;41.652;9.378;2023-12-20T08:08:57;3.20;;;1.10;;
28176;SDS011;15461;41.652;9.378;2023-12-20T08:11:23;1.55;;;1.02;;
28176;SDS011;15461;41.652;9.378;2023-12-20T08:13:48;1.92;;;1.15;;
28176;SDS011;15461;41.652;9.378;2023-12-20T08:16:14;2.75;;;1.10;;
28176;SDS011;15461;41.652;9.378;2023-12-20T08:18:42;2.00;;;1.20;;
28176;SDS011;15461;41.652;9.378;2023-12-20T08:21:08;1.55;;;1.20;;
28176;SDS011;15461;41.652;9.378;2023-12-20T08:23:34;1.80;;;1.00;;
28176;SDS011;15461;41.652;9.378;2023-12-20T08:26:07;1.45;;;1.17;;
28176;SDS011;15461;41.652;9.378;2023-12-20T08:28:33;2.30;;;1.08;;
28176;SDS011;15461;41.652;9.378;2023-12-20T08:30:59;5.75;;;1.27;;
28176;SDS011;15461;41.652;9.378;2023-12-20T08:33:25;3.83;;;1.40;;
28176;SDS011;15461;41.652;9.378;2023-12-20T08:35:51;2.60;;;1.42;;
28176;SDS011;15461;41.652;9.378;2023-12-20T08:38:17;1.65;;;1.20;;
28176;SDS011;15461;41.652;9.378;2023-12-20T08:40:43;3.08;;;1.55;;
28176;SDS011;15461;41.652;9.378;2023-12-20T08:43:09;1.92;;;1.20;;
28176;SDS011;15461;41.652;9.378;2023-12-20T08:45:35;1.55;;;1.17;;
28176;SDS011;15461;41.652;9.378;2023-12-20T08:48:01;2.05;;;1.33;;
28176;SDS011;15461;41.652;9.378;2023-12-20T08:50:28;2.25;;;1.23;;
28176;SDS011;15461;41.652;9.378;2023-12-20T08:52:54;1.70;;;1.23;;
28176;SDS011;15461;41.652;9.378;2023-12-20T08:55:20;10.23;;;1.45;;
28176;SDS011;15461;41.652;9.378;2023-12-20T08:57:46;2.92;;;1.20;;
28176;SDS011;15461;41.652;9.378;2023-12-20T09:00:12;2.80;;;1.45;;
28176;SDS011;15461;41.652;9.378;2023-12-20T09:02:38;2.83;;;1.90;;
28176;SDS011;15461;41.652;9.378;2023-12-20T09:05:04;2.60;;;1.30;;
28176;SDS011;15461;41.652;9.378;2023-12-20T09:07:30;4.65;;;1.27;;
28176;SDS011;15461;41.652;9.378;2023-12-20T09:09:57;3.67;;;1.70;;
28176;SDS011;15461;41.652;9.378;2023-12-20T09:12:23;2.35;;;1.42;;
28176;SDS011;15461;41.652;9.378;2023-12-20T09:14:50;3.20;;;1.60;;
28176;SDS011;15461;41.652;9.378;2023-12-20T09:17:16;5.30;;;1.50;;
28176;SDS011;15461;41.652;9.378;2023-12-20T09:19:43;2.72;;;1.50;;
28176;SDS011;15461;41.652;9.378;2023-12-20T09:22:09;1.55;;;1.27;;
28176;SDS011;15461;41.652;9.378;2023-12-20T09:24:36;4.68;;;1.45;;
28176;SDS011;15461;41.652;9.378;2023-12-20T09:27:02;2.47;;;1.48;;
28176;SDS011;15461;41.652;9.378;2023-12-20T09:29:28;5.65;;;1.40;;
28176;SDS011;15461;41.652;9.378;2023-12-20T09:31:54;2.65;;;1.45;;
28176;SDS011;15461;41.652;9.378;2023-12-20T09:34:20;2.58;;;1.40;;
28176;SDS011;15461;41.652;9.378;2023-12-20T09:36:47;2.60;;;1.30;;
28176;SDS011;15461;41.652;9.378;2023-12-20T09:39:13;2.97;;;1.35;;
28176;SDS011;15461;41.652;9.378;2023-12-20T09:41:43;1.75;;;1.10;;
28176;SDS011;15461;41.652;9.378;2023-12-20T09:44:13;2.07;;;1.07;;
28176;SDS011;15461;41.652;9.378;2023-12-20T09:46:44;2.40;;;1.30;;
28176;SDS011;15461;41.652;9.378;2023-12-20T09:49:13;2.95;;;1.42;;
28176;SDS011;15461;41.652;9.378;2023-12-20T09:51:42;3.13;;;1.50;;
28176;SDS011;15461;41.652;9.378;2023-12-20T09:54:08;1.92;;;1.38;;
28176;SDS011;15461;41.652;9.378;2023-12-20T09:56:35;2.42;;;1.40;;
28176;SDS011;15461;41.652;9.378;2023-12-20T09:59:02;1.55;;;1.00;;
28176;SDS011;15461;41.652;9.378;2023-12-20T10:01:27;2.38;;;0.90;;
28176;SDS011;15461;41.652;9.378;2023-12-20T10:03:54;1.95;;;1.10;;
28176;SDS011;15461;41.652;9.378;2023-12-20T10:06:21;1.50;;;1.10;;
28176;SDS011;15461;41.652;9.378;2023-12-20T10:08:47;1.52;;;1.05;;
28176;SDS011;15461;41.652;9.378;2023-12-20T10:11:13;1.25;;;1.00;;
28176;SDS011;15461;41.652;9.378;2023-12-20T10:13:40;1.58;;;1.25;;
28176;SDS011;15461;41.652;9.378;2023-12-20T10:16:06;3.78;;;1.20;;
28176;SDS011;15461;41.652;9.378;2023-12-20T10:18:32;1.80;;;1.25;;
28176;SDS011;15461;41.652;9.378;2023-12-20T10:20:58;2.92;;;1.13;;
28176;SDS011;15461;41.652;9.378;2023-12-20T10:23:25;2.22;;;1.30;;
28176;SDS011;15461;41.652;9.378;2023-12-20T10:25:58;1.48;;;0.82;;
28176;SDS011;15461;41.652;9.378;2023-12-20T10:28:24;2.78;;;1.13;;
28176;SDS011;15461;41.652;9.378;2023-12-20T10:30:53;2.40;;;1.17;;
28176;SDS011;15461;41.652;9.378;2023-12-20T10:33:26;1.88;;;1.00;;
28176;SDS011;15461;41.652;9.378;2023-12-20T10:35:54;2.20;;;1.00;;
28176;SDS011;15461;41.652;9.378;2023-12-20T10:38:20;2.45;;;1.25;;
28176;SDS011;15461;41.652;9.378;2023-12-20T10:40:47;2.33;;;1.00;;
28176;SDS011;15461;41.652;9.378;2023-12-20T10:43:15;2.28;;;1.17;;
28176;SDS011;15461;41.652;9.378;2023-12-20T10:45:43;1.05;;;0.90;;
28176;SDS011;15461;41.652;9.378;2023-12-20T10:48:10;2.05;;;1.08;;
28176;SDS011;15461;41.652;9.378;2023-12-20T10:50:37;1.27;;;1.00;;
28176;SDS011;15461;41.652;9.378;2023-12-20T10:53:03;1.55;;;1.08;;
28176;SDS011;15461;41.652;9.378;2023-12-20T10:55:29;6.47;;;1.60;;
28176;SDS011;15461;41.652;9.378;2023-12-20T10:58:01;4.63;;;1.45;;
28176;SDS011;15461;41.652;9.378;2023-12-20T11:00:32;2.13;;;1.25;;
28176;SDS011;15461;41.652;9.378;2023-12-20T11:03:01;2.03;;;1.17;;
28176;SDS011;15461;41.652;9.378;2023-12-20T11:13:34;2.55;;;1.10;;
28176;SDS011;15461;41.652;9.378;2023-12-20T11:16:05;1.42;;;0.95;;
28176;SDS011;15461;41.652;9.378;2023-12-20T11:18:32;1.58;;;1.10;;
28176;SDS011;15461;41.652;9.378;2023-12-20T11:21:01;2.05;;;1.27;;
28176;SDS011;15461;41.652;9.378;2023-12-20T11:23:29;1.50;;;1.00;;
28176;SDS011;15461;41.652;9.378;2023-12-20T11:25:58;7.65;;;1.40;;
28176;SDS011;15461;41.652;9.378;2023-12-20T11:28:24;1.52;;;1.10;;
28176;SDS011;15461;41.652;9.378;2023-12-20T11:30:55;1.73;;;1.25;;
28176;SDS011;15461;41.652;9.378;2023-12-20T11:33:25;4.65;;;1.55;;
28176;SDS011;15461;41.652;9.378;2023-12-20T11:35:52;1.52;;;1.10;;
28176;SDS011;15461;41.652;9.378;2023-12-20T11:38:21;3.95;;;1.17;;
28176;SDS011;15461;41.652;9.378;2023-12-20T11:40:50;4.15;;;1.35;;
28176;SDS011;15461;41.652;9.378;2023-12-20T11:43:31;1.55;;;1.00;;
28176;SDS011;15461;41.652;9.378;2023-12-20T11:46:06;2.22;;;1.17;;
28176;SDS011;15461;41.652;9.378;2023-12-20T11:48:37;2.92;;;1.25;;
28176;SDS011;15461;41.652;9.378;2023-12-20T11:51:10;2.58;;;1.55;;
28176;SDS011;15461;41.652;9.378;2023-12-20T11:53:36;3.30;;;1.30;;
28176;SDS011;15461;41.652;9.378;2023-12-20T11:56:02;2.42;;;1.10;;
28176;SDS011;15461;41.652;9.378;2023-12-20T11:58:29;2.03;;;1.25;;
28176;SDS011;15461;41.652;9.378;2023-12-20T12:00:55;3.08;;;1.23;;
28176;SDS011;15461;41.652;9.378;2023-12-20T12:03:21;3.03;;;1.17;;
28176;SDS011;15461;41.652;9.378;2023-12-20T12:05:49;3.65;;;1.00;;
28176;SDS011;15461;41.652;9.378;2023-12-20T12:08:15;2.20;;;1.23;;
28176;SDS011;15461;41.652;9.378;2023-12-20T12:10:42;3.03;;;1.10;;
28176;SDS011;15461;41.652;9.378;2023-12-20T12:13:09;1.25;;;1.10;;
28176;SDS011;15461;41.652;9.378;2023-12-20T12:15:35;3.50;;;1.17;;
28176;SDS011;15461;41.652;9.378;2023-12-20T12:18:01;2.92;;;1.38;;
28176;SDS011;15461;41.652;9.378;2023-12-20T12:20:27;2.25;;;1.20;;
28176;SDS011;15461;41.652;9.378;2023-12-20T12:23:04;2.08;;;1.27;;
28176;SDS011;15461;41.652;9.378;2023-12-20T12:25:32;1.88;;;1.20;;
28176;SDS011;15461;41.652;9.378;2023-12-20T12:28:00;1.80;;;1.00;;
28176;SDS011;15461;41.652;9.378;2023-12-20T12:30:27;0.98;;;0.88;;
28176;SDS011;15461;41.652;9.378;2023-12-20T12:32:53;1.80;;;0.98;;
28176;SDS011;15461;41.652;9.378;2023-12-20T12:35:21;1.83;;;1.10;;
28176;SDS011;15461;41.652;9.378;2023-12-20T12:37:47;2.08;;;1.10;;
28176;SDS011;15461;41.652;9.378;2023-12-20T12:40:13;1.67;;;1.00;;
28176;SDS011;15461;41.652;9.378;2023-12-20T12:42:41;8.27;;;0.90;;
28176;SDS011;15461;41.652;9.378;2023-12-20T12:45:08;1.92;;;1.17;;
28176;SDS011;15461;41.652;9.378;2023-12-20T12:47:35;1.70;;;1.00;;
28176;SDS011;15461;41.652;9.378;2023-12-20T12:50:01;2.63;;;1.00;;
28176;SDS011;15461;41.652;9.378;2023-12-20T12:52:27;1.50;;;1.05;;
28176;SDS011;15461;41.652;9.378;2023-12-20T12:54:53;2.80;;;1.20;;
28176;SDS011;15461;41.652;9.378;2023-12-20T12:57:19;1.52;;;1.08;;
28176;SDS011;15461;41.652;9.378;2023-12-20T12:59:45;4.53;;;1.23;;
28176;SDS011;15461;41.652;9.378;2023-12-20T13:02:14;3.10;;;1.98;;
28176;SDS011;15461;41.652;9.378;2023-12-20T13:04:41;2.17;;;0.95;;
28176;SDS011;15461;41.652;9.378;2023-12-20T13:07:08;2.13;;;1.02;;
28176;SDS011;15461;41.652;9.378;2023-12-20T13:09:38;1.52;;;0.90;;
28176;SDS011;15461;41.652;9.378;2023-12-20T13:12:05;1.10;;;0.90;;
28176;SDS011;15461;41.652;9.378;2023-12-20T13:14:33;3.22;;;1.25;;
28176;SDS011;15461;41.652;9.378;2023-12-20T13:17:00;3.53;;;0.90;;
28176;SDS011;15461;41.652;9.378;2023-12-20T13:19:26;2.50;;;1.05;;
28176;SDS011;15461;41.652;9.378;2023-12-20T13:21:52;4.30;;;0.90;;
28176;SDS011;15461;41.652;9.378;2023-12-20T13:24:18;1.15;;;1.02;;
28176;SDS011;15461;41.652;9.378;2023-12-20T13:26:44;3.75;;;1.20;;
28176;SDS011;15461;41.652;9.378;2023-12-20T13:29:10;1.27;;;1.00;;
28176;SDS011;15461;41.652;9.378;2023-12-20T13:31:36;1.90;;;1.00;;
28176;SDS011;15461;41.652;9.378;2023-12-20T13:34:02;1.55;;;0.73;;
28176;SDS011;15461;41.652;9.378;2023-12-20T13:36:28;2.60;;;1.20;;
28176;SDS011;15461;41.652;9.378;2023-12-20T13:38:54;2.25;;;1.02;;
28176;SDS011;15461;41.652;9.378;2023-12-20T13:41:20;0.90;;;0.88;;
28176;SDS011;15461;41.652;9.378;2023-12-20T13:43:45;1.92;;;0.85;;
28176;SDS011;15461;41.652;9.378;2023-12-20T13:46:11;1.05;;;0.80;;
28176;SDS011;15461;41.652;9.378;2023-12-20T13:48:39;1.13;;;0.80;;
28176;SDS011;15461;41.652;9.378;2023-12-20T13:51:04;3.45;;;1.10;;
28176;SDS011;15461;41.652;9.378;2023-12-20T13:53:31;0.85;;;0.70;;
28176;SDS011;15461;41.652;9.378;2023-12-20T13:55:57;1.58;;;1.17;;
28176;SDS011;15461;41.652;9.378;2023-12-20T13:58:23;2.15;;;0.90;;
28176;SDS011;15461;41.652;9.378;2023-12-20T14:00:51;2.03;;;1.10;;
28176;SDS011;15461;41.652;9.378;2023-12-20T14:03:17;1.92;;;0.80;;
28176;SDS011;15461;41.652;9.378;2023-12-20T14:05:44;1.10;;;0.80;;
28176;SDS011;15461;41.652;9.378;2023-12-20T14:08:10;1.85;;;0.90;;
28176;SDS011;15461;41.652;9.378;2023-12-20T14:10:36;2.28;;;0.90;;
28176;SDS011;15461;41.652;9.378;2023-12-20T14:13:03;5.20;;;0.70;;
28176;SDS011;15461;41.652;9.378;2023-12-20T14:15:30;3.05;;;0.75;;
28176;SDS011;15461;41.652;9.378;2023-12-20T14:18:03;2.00;;;1.10;;
28176;SDS011;15461;41.652;9.378;2023-12-20T14:20:33;1.20;;;0.80;;
28176;SDS011;15461;41.652;9.378;2023-12-20T14:23:04;3.42;;;1.00;;
28176;SDS011;15461;41.652;9.378;2023-12-20T14:25:30;1.50;;;0.88;;
28176;SDS011;15461;41.652;9.378;2023-12-20T14:27:56;2.35;;;1.00;;
28176;SDS011;15461;41.652;9.378;2023-12-20T14:30:23;4.25;;;1.00;;
28176;SDS011;15461;41.652;9.378;2023-12-20T14:32:49;3.15;;;1.60;;
28176;SDS011;15461;41.652;9.378;2023-12-20T14:35:15;3.53;;;1.00;;
28176;SDS011;15461;41.652;9.378;2023-12-20T14:37:41;1.52;;;1.00;;
28176;SDS011;15461;41.652;9.378;2023-12-20T14:40:07;1.20;;;0.90;;
28176;SDS011;15461;41.652;9.378;2023-12-20T14:42:40;1.98;;;0.90;;
28176;SDS011;15461;41.652;9.378;2023-12-20T14:45:07;2.47;;;1.02;;
28176;SDS011;15461;41.652;9.378;2023-12-20T14:47:33;1.92;;;0.90;;
28176;SDS011;15461;41.652;9.378;2023-12-20T14:49:59;0.75;;;0.75;;
28176;SDS011;15461;41.652;9.378;2023-12-20T14:52:24;2.10;;;1.08;;